Time;durP1;ratioP1;P1;durP2;ratioP2;P2;SDS_P1;SDS_P2;PMS_P1;PMS_P2;Temp;Humidity;BMP_temperature;BMP_pressure;BME280_temperature;BME280_humidity;BME280_pressure;Samples;Min_cycle;Max_cycle;Signal;HPM_P1;HPM_P2
2023/08/18 00:00:08;;;;;;;9.32;6.85;;;;;;;;;;5037552;28;20476;-79
2023/08/18 00:02:35;;;;;;;6.80;6.03;;;;;;;;;;5055101;28;20041;-79
2023/08/18 00:05:01;;;;;;;7.65;5.68;;;;;;;;;;5053857;28;20047;-79
2023/08/18 00:07:27;;;;;;;8.15;4.82;;;;;;;;;;5053834;28;20064;-79
2023/08/18 00:09:53;;;;;;;5.68;5.18;;;;;;;;;;5053879;28;20051;-79
2023/08/18 00:12:19;;;;;;;6.57;4.85;;;;;;;;;;5053991;28;20045;-79
2023/08/18 00:14:45;;;;;;;5.55;5.03;;;;;;;;;;5020989;28;20132;-79
2023/08/18 00:17:11;;;;;;;7.47;5.13;;;;;;;;;;5037395;28;20408;-79
2023/08/18 00:19:37;;;;;;;6.50;5.38;;;;;;;;;;5053787;28;20048;-79
2023/08/18 00:22:04;;;;;;;6.10;5.28;;;;;;;;;;5053645;28;20500;-79
2023/08/18 00:24:30;;;;;;;9.18;5.40;;;;;;;;;;5053568;28;20052;-79
2023/08/18 00:26:56;;;;;;;9.07;4.90;;;;;;;;;;5053664;28;20048;-79
2023/08/18 00:29:22;;;;;;;7.22;4.93;;;;;;;;;;5053409;28;20041;-79
2023/08/18 00:31:48;;;;;;;7.32;5.38;;;;;;;;;;5053243;28;20059;-79
2023/08/18 00:34:14;;;;;;;7.50;4.75;;;;;;;;;;5036449;28;20041;-79
2023/08/18 00:36:40;;;;;;;7.15;4.47;;;;;;;;;;5053072;28;20491;-79
2023/08/18 00:39:06;;;;;;;6.55;4.30;;;;;;;;;;5053892;28;20048;-79
2023/08/18 00:41:32;;;;;;;8.18;4.38;;;;;;;;;;5053119;28;20071;-79
2023/08/18 00:43:58;;;;;;;8.55;5.10;;;;;;;;;;5053320;28;20041;-79
2023/08/18 00:46:24;;;;;;;9.25;4.70;;;;;;;;;;5036580;28;20393;-79
2023/08/18 00:48:51;;;;;;;8.00;4.80;;;;;;;;;;5036668;28;20460;-79
2023/08/18 00:51:17;;;;;;;11.80;4.43;;;;;;;;;;5054795;28;20084;-79
2023/08/18 00:53:43;;;;;;;10.57;4.65;;;;;;;;;;5040117;28;20135;-80
2023/08/18 00:56:10;;;;;;;8.93;4.60;;;;;;;;;;5056264;28;20105;-79
2023/08/18 00:58:36;;;;;;;6.85;4.70;;;;;;;;;;5074044;28;20048;-79
2023/08/18 01:01:03;;;;;;;7.55;4.45;;;;;;;;;;5056474;28;20044;-79
2023/08/18 01:03:32;;;;;;;9.15;4.47;;;;;;;;;;5038648;28;20499;-79
2023/08/18 01:05:59;;;;;;;8.70;4.38;;;;;;;;;;5056073;28;20045;-79
2023/08/18 01:08:25;;;;;;;8.63;4.28;;;;;;;;;;5055991;28;20046;-79
2023/08/18 01:10:54;;;;;;;6.05;3.70;;;;;;;;;;5039775;28;20044;-79
2023/08/18 01:13:39;;;;;;;6.20;3.15;;;;;;;;;;5056073;28;20383;-80
2023/08/18 01:16:11;;;;;;;7.07;3.80;;;;;;;;;;5056118;28;20380;-79
2023/08/18 01:18:38;;;;;;;4.60;3.20;;;;;;;;;;5055956;28;20036;-79
2023/08/18 01:21:04;;;;;;;8.70;3.45;;;;;;;;;;5056036;28;20055;-79
2023/08/18 01:23:38;;;;;;;6.30;3.30;;;;;;;;;;5056266;28;20072;-79
2023/08/18 01:26:04;;;;;;;7.43;3.38;;;;;;;;;;5055951;28;20040;-79
2023/08/18 01:28:30;;;;;;;7.97;4.65;;;;;;;;;;5056091;28;20037;-79
2023/08/18 01:30:57;;;;;;;9.27;4.05;;;;;;;;;;5055726;28;20048;-79
2023/08/18 01:33:37;;;;;;;10.07;4.35;;;;;;;;;;5055346;28;20048;-80
2023/08/18 01:36:09;;;;;;;8.05;4.45;;;;;;;;;;5056147;28;20079;-79
2023/08/18 01:38:37;;;;;;;5.72;4.65;;;;;;;;;;5039439;28;20040;-79
2023/08/18 01:41:05;;;;;;;9.32;4.07;;;;;;;;;;5056167;28;20087;-79
2023/08/18 01:43:32;;;;;;;9.70;4.25;;;;;;;;;;5055451;28;20044;-79
2023/08/18 01:46:00;;;;;;;5.72;4.13;;;;;;;;;;5055602;28;20537;-79
2023/08/18 01:48:26;;;;;;;7.78;3.80;;;;;;;;;;5055530;28;20048;-79
2023/08/18 01:50:52;;;;;;;5.70;3.95;;;;;;;;;;5059006;28;20036;-79
2023/08/18 01:53:18;;;;;;;5.75;4.47;;;;;;;;;;5059270;28;20052;-79
2023/08/18 01:55:44;;;;;;;4.85;4.00;;;;;;;;;;5059733;28;20358;-79
2023/08/18 01:58:10;;;;;;;7.80;3.75;;;;;;;;;;5059700;28;20047;-80
2023/08/18 02:00:36;;;;;;;7.53;3.55;;;;;;;;;;5058890;28;20041;-80
2023/08/18 02:03:02;;;;;;;11.50;4.40;;;;;;;;;;5076929;28;20036;-79
2023/08/18 02:05:29;;;;;;;8.50;4.80;;;;;;;;;;5041792;28;20133;-79
2023/08/18 02:07:55;;;;;;;7.10;4.18;;;;;;;;;;5042764;28;20084;-79
2023/08/18 02:10:21;;;;;;;6.57;3.95;;;;;;;;;;5059413;28;20083;-79
2023/08/18 02:12:47;;;;;;;6.72;4.22;;;;;;;;;;5059246;28;20042;-79
2023/08/18 02:15:13;;;;;;;12.05;4.13;;;;;;;;;;5058845;28;20040;-80
2023/08/18 02:17:39;;;;;;;9.15;4.28;;;;;;;;;;5059399;28;20476;-79
2023/08/18 02:20:08;;;;;;;6.10;4.97;;;;;;;;;;5042848;28;20082;-79
2023/08/18 02:22:34;;;;;;;6.32;5.07;;;;;;;;;;5076916;28;20045;-79
2023/08/18 02:25:01;;;;;;;10.63;4.85;;;;;;;;;;5042579;28;20390;-79
2023/08/18 02:27:27;;;;;;;5.82;4.85;;;;;;;;;;5042556;28;20071;-79
2023/08/18 02:29:53;;;;;;;8.32;4.65;;;;;;;;;;5059295;28;20131;-79
2023/08/18 02:32:19;;;;;;;8.27;4.90;;;;;;;;;;5042372;28;20360;-79
2023/08/18 02:34:45;;;;;;;6.40;4.80;;;;;;;;;;5058569;28;20048;-79
2023/08/18 02:37:12;;;;;;;10.90;6.30;;;;;;;;;;5059248;28;20040;-79
2023/08/18 02:39:39;;;;;;;10.02;5.40;;;;;;;;;;5042165;28;20047;-79
2023/08/18 02:42:05;;;;;;;7.45;5.47;;;;;;;;;;5058720;28;20037;-79
2023/08/18 02:44:31;;;;;;;6.82;5.13;;;;;;;;;;5042339;28;20048;-79
2023/08/18 02:46:58;;;;;;;8.80;5.75;;;;;;;;;;5076346;28;20052;-79
2023/08/18 02:49:24;;;;;;;8.10;5.30;;;;;;;;;;5058688;28;20094;-79
2023/08/18 02:51:50;;;;;;;8.35;4.60;;;;;;;;;;5058735;28;20047;-79
2023/08/18 02:54:16;;;;;;;6.32;4.90;;;;;;;;;;5058338;28;20052;-79
2023/08/18 02:56:42;;;;;;;8.32;5.68;;;;;;;;;;5058565;28;20075;-80
2023/08/18 02:59:08;;;;;;;9.00;5.85;;;;;;;;;;5042023;28;20371;-79
2023/08/18 03:01:34;;;;;;;8.88;5.50;;;;;;;;;;5058183;28;20044;-79
2023/08/18 03:04:00;;;;;;;7.53;5.05;;;;;;;;;;5025231;28;20048;-79
2023/08/18 03:06:26;;;;;;;8.52;4.97;;;;;;;;;;5058519;28;20047;-79
2023/08/18 03:08:52;;;;;;;7.38;4.50;;;;;;;;;;5076036;28;20040;-79
2023/08/18 03:11:19;;;;;;;9.30;4.75;;;;;;;;;;5058057;28;20102;-79
2023/08/18 03:13:45;;;;;;;8.70;5.50;;;;;;;;;;5041972;28;20357;-79
2023/08/18 03:16:11;;;;;;;9.43;4.97;;;;;;;;;;5058277;28;20079;-79
2023/08/18 03:18:37;;;;;;;6.93;4.72;;;;;;;;;;5058325;28;20048;-79
2023/08/18 03:21:03;;;;;;;12.60;5.63;;;;;;;;;;5075993;28;20059;-79
2023/08/18 03:23:30;;;;;;;9.70;5.65;;;;;;;;;;5057585;28;20051;-81
2023/08/18 03:26:03;;;;;;;10.13;5.03;;;;;;;;;;5057558;28;20510;-79
2023/08/18 03:28:31;;;;;;;9.30;5.55;;;;;;;;;;5058154;28;20036;-79
2023/08/18 03:31:00;;;;;;;9.88;5.30;;;;;;;;;;5058109;28;20115;-79
2023/08/18 03:33:27;;;;;;;9.65;4.95;;;;;;;;;;5041539;28;20053;-79
2023/08/18 03:35:53;;;;;;;8.95;5.47;;;;;;;;;;5040961;28;20052;-79
2023/08/18 03:38:19;;;;;;;8.32;6.30;;;;;;;;;;5057584;28;20041;-80
2023/08/18 03:40:45;;;;;;;8.23;5.35;;;;;;;;;;5041082;28;20044;-79
2023/08/18 03:43:11;;;;;;;9.07;5.63;;;;;;;;;;5041059;28;20086;-79
2023/08/18 03:45:37;;;;;;;8.60;5.32;;;;;;;;;;5057800;28;20037;-79
2023/08/18 03:48:04;;;;;;;10.73;5.72;;;;;;;;;;5057747;28;20048;-79
2023/08/18 03:50:30;;;;;;;7.88;5.13;;;;;;;;;;5057485;28;20472;-79
2023/08/18 03:52:57;;;;;;;8.68;5.75;;;;;;;;;;5056991;28;20139;-79
2023/08/18 03:55:24;;;;;;;10.85;5.55;;;;;;;;;;5041300;28;20048;-79
2023/08/18 03:57:50;;;;;;;9.75;5.78;;;;;;;;;;5057659;28;20060;-79
2023/08/18 04:00:17;;;;;;;6.97;5.60;;;;;;;;;;5057515;28;20044;-79
2023/08/18 04:02:44;;;;;;;9.60;6.07;;;;;;;;;;5057029;28;20051;-79
2023/08/18 04:05:10;;;;;;;9.85;6.22;;;;;;;;;;5040342;28;20094;-79
2023/08/18 04:07:36;;;;;;;7.00;6.00;;;;;;;;;;5040568;28;20150;-79
2023/08/18 04:10:03;;;;;;;7.25;5.82;;;;;;;;;;5040699;28;20040;-79
2023/08/18 04:12:29;;;;;;;8.48;6.40;;;;;;;;;;5040380;28;20087;-79
2023/08/18 04:14:55;;;;;;;10.68;6.78;;;;;;;;;;5056928;28;20055;-79
2023/08/18 04:17:21;;;;;;;11.57;6.07;;;;;;;;;;5040673;28;20083;-79
2023/08/18 04:19:47;;;;;;;7.72;5.35;;;;;;;;;;5056886;28;20391;-79
2023/08/18 04:22:13;;;;;;;8.90;6.00;;;;;;;;;;5040406;28;20033;-79
2023/08/18 04:24:40;;;;;;;10.75;6.50;;;;;;;;;;5040458;28;20083;-79
2023/08/18 04:27:06;;;;;;;7.47;5.82;;;;;;;;;;5024070;28;20542;-79
2023/08/18 04:29:32;;;;;;;6.75;6.03;;;;;;;;;;5039372;28;20044;-80
2023/08/18 04:31:58;;;;;;;10.55;6.97;;;;;;;;;;5056283;28;20117;-79
2023/08/18 04:34:24;;;;;;;9.38;6.47;;;;;;;;;;5056156;28;20041;-79
2023/08/18 04:36:50;;;;;;;7.60;5.78;;;;;;;;;;5056780;28;20044;-79
2023/08/18 04:39:16;;;;;;;10.95;7.10;;;;;;;;;;5057430;28;20186;-79
2023/08/18 04:41:42;;;;;;;9.57;6.28;;;;;;;;;;5056651;28;20075;-79
2023/08/18 04:44:08;;;;;;;9.68;6.85;;;;;;;;;;5056030;28;20055;-79
2023/08/18 04:46:34;;;;;;;9.60;6.35;;;;;;;;;;5074180;28;20043;-79
2023/08/18 04:49:00;;;;;;;7.85;6.28;;;;;;;;;;5039600;28;20094;-79
2023/08/18 04:51:28;;;;;;;12.75;6.40;;;;;;;;;;5056412;28;20436;-79
2023/08/18 04:53:54;;;;;;;10.45;7.00;;;;;;;;;;5056099;28;20048;-79
2023/08/18 04:56:20;;;;;;;8.75;6.45;;;;;;;;;;5039716;28;20127;-79
2023/08/18 04:58:46;;;;;;;8.38;7.00;;;;;;;;;;5056151;28;20075;-79
2023/08/18 05:01:12;;;;;;;7.03;6.30;;;;;;;;;;5039506;28;20047;-79
2023/08/18 05:03:38;;;;;;;10.32;7.03;;;;;;;;;;5055505;28;20040;-82
2023/08/18 05:06:08;;;;;;;7.57;6.82;;;;;;;;;;5055666;28;20138;-79
2023/08/18 05:08:34;;;;;;;7.35;6.65;;;;;;;;;;5039561;28;20130;-79
2023/08/18 05:11:05;;;;;;;8.45;6.63;;;;;;;;;;5055986;28;20465;-79
2023/08/18 05:13:31;;;;;;;9.07;6.68;;;;;;;;;;5073664;28;20040;-79
2023/08/18 05:15:58;;;;;;;7.40;6.13;;;;;;;;;;5055989;28;20040;-79
2023/08/18 05:18:25;;;;;;;9.00;6.95;;;;;;;;;;5037188;28;20037;-79
2023/08/18 05:20:51;;;;;;;10.68;7.60;;;;;;;;;;5019490;28;20087;-79
2023/08/18 05:23:17;;;;;;;10.63;6.57;;;;;;;;;;5035351;28;20051;-79
2023/08/18 05:25:48;;;;;;;9.50;7.22;;;;;;;;;;5035689;28;20045;-79
2023/08/18 05:28:14;;;;;;;13.90;6.97;;;;;;;;;;5019871;28;20468;-79
2023/08/18 05:30:47;;;;;;;9.32;6.82;;;;;;;;;;5035931;28;20064;-79
2023/08/18 05:33:14;;;;;;;9.40;6.75;;;;;;;;;;5035542;28;20048;-79
2023/08/18 05:35:40;;;;;;;11.07;7.38;;;;;;;;;;5019019;28;20423;-79
2023/08/18 05:38:12;;;;;;;9.10;7.28;;;;;;;;;;5035662;28;20473;-79
2023/08/18 05:40:41;;;;;;;11.48;7.65;;;;;;;;;;5036267;28;20045;-79
2023/08/18 05:43:07;;;;;;;8.18;7.15;;;;;;;;;;5035503;28;20044;-79
2023/08/18 05:45:36;;;;;;;9.30;7.22;;;;;;;;;;5035772;28;20068;-80
2023/08/18 05:48:03;;;;;;;12.68;8.15;;;;;;;;;;5019446;28;20423;-80
2023/08/18 05:50:29;;;;;;;10.30;7.47;;;;;;;;;;5035828;28;20037;-80
2023/08/18 05:52:56;;;;;;;9.77;7.25;;;;;;;;;;5019099;28;20122;-79
2023/08/18 05:55:25;;;;;;;8.23;7.13;;;;;;;;;;5035813;28;20057;-81
2023/08/18 05:57:52;;;;;;;12.40;7.95;;;;;;;;;;5035661;28;20080;-80
2023/08/18 06:00:18;;;;;;;11.38;8.20;;;;;;;;;;5018984;28;20052;-80
2023/08/18 06:02:44;;;;;;;11.50;8.23;;;;;;;;;;5035536;28;20128;-79
2023/08/18 06:05:11;;;;;;;9.60;7.60;;;;;;;;;;5035418;28;20041;-80
2023/08/18 06:07:40;;;;;;;14.68;8.93;;;;;;;;;;5035725;28;20041;-79
2023/08/18 06:10:07;;;;;;;13.93;9.13;;;;;;;;;;5035524;28;20091;-79
2023/08/18 06:12:34;;;;;;;11.90;8.75;;;;;;;;;;5019225;28;20110;-79
2023/08/18 06:15:00;;;;;;;12.80;8.75;;;;;;;;;;5035342;28;20098;-80
2023/08/18 06:17:26;;;;;;;13.80;8.02;;;;;;;;;;5019232;28;20480;-80
2023/08/18 06:19:53;;;;;;;16.33;9.40;;;;;;;;;;5035274;28;20045;-79
2023/08/18 06:22:19;;;;;;;13.88;9.05;;;;;;;;;;5035280;28;20095;-79
2023/08/18 06:24:45;;;;;;;17.10;9.52;;;;;;;;;;5053089;28;20048;-79
2023/08/18 06:27:11;;;;;;;11.25;9.07;;;;;;;;;;5019099;28;20049;-79
2023/08/18 06:29:38;;;;;;;14.23;9.15;;;;;;;;;;5018855;28;20412;-80
2023/08/18 06:32:04;;;;;;;17.55;9.60;;;;;;;;;;5035481;28;20445;-79
2023/08/18 06:34:30;;;;;;;16.77;9.93;;;;;;;;;;5052573;28;20049;-79
2023/08/18 06:36:56;;;;;;;14.48;8.98;;;;;;;;;;5038420;28;20057;-79
2023/08/18 06:39:22;;;;;;;14.23;8.75;;;;;;;;;;5039198;28;20425;-79
2023/08/18 06:41:48;;;;;;;15.10;9.30;;;;;;;;;;5056481;28;20049;-80
2023/08/18 06:44:15;;;;;;;14.15;10.25;;;;;;;;;;5038707;28;20431;-79
2023/08/18 06:46:41;;;;;;;16.00;10.77;;;;;;;;;;5056608;28;20045;-79
2023/08/18 06:49:07;;;;;;;14.30;10.13;;;;;;;;;;5038899;28;20495;-79
2023/08/18 06:51:33;;;;;;;15.45;10.95;;;;;;;;;;5005904;28;20128;-79
2023/08/18 06:53:59;;;;;;;13.52;10.13;;;;;;;;;;5038239;28;20049;-80
2023/08/18 06:56:25;;;;;;;17.50;9.90;;;;;;;;;;5022170;28;20049;-79
2023/08/18 06:58:51;;;;;;;15.80;10.35;;;;;;;;;;5038519;28;20128;-79
2023/08/18 07:01:18;;;;;;;13.75;9.48;;;;;;;;;;5038859;28;20045;-79
2023/08/18 07:03:44;;;;;;;18.88;11.00;;;;;;;;;;5038358;28;20114;-79
2023/08/18 07:06:10;;;;;;;18.05;11.07;;;;;;;;;;5038244;28;20377;-79
2023/08/18 07:08:36;;;;;;;16.15;10.23;;;;;;;;;;5038479;28;20116;-79
2023/08/18 07:11:02;;;;;;;15.48;10.70;;;;;;;;;;5021867;28;20455;-80
2023/08/18 07:13:29;;;;;;;16.58;10.52;;;;;;;;;;5038106;28;20076;-80
2023/08/18 07:15:55;;;;;;;16.75;10.23;;;;;;;;;;5020631;28;20040;-80
2023/08/18 07:18:21;;;;;;;17.00;10.52;;;;;;;;;;5038018;28;20037;-79
2023/08/18 07:20:47;;;;;;;14.90;9.38;;;;;;;;;;5038214;28;20041;-79
2023/08/18 07:23:14;;;;;;;15.50;9.70;;;;;;;;;;5021332;28;20037;-80
2023/08/18 07:25:42;;;;;;;14.43;9.20;;;;;;;;;;5037948;28;20151;-80
2023/08/18 07:28:08;;;;;;;14.48;9.27;;;;;;;;;;5038090;28;20049;-80
2023/08/18 07:30:34;;;;;;;15.05;9.27;;;;;;;;;;5037843;28;20083;-80
2023/08/18 07:33:00;;;;;;;14.07;9.30;;;;;;;;;;5021004;28;20096;-80
2023/08/18 07:35:26;;;;;;;14.75;9.55;;;;;;;;;;5037294;28;20051;-80
2023/08/18 07:37:52;;;;;;;13.38;8.60;;;;;;;;;;5037928;28;20124;-80
2023/08/18 07:40:19;;;;;;;17.98;10.88;;;;;;;;;;5037541;28;20041;-80
2023/08/18 07:42:46;;;;;;;13.77;9.43;;;;;;;;;;5021291;28;20526;-80
2023/08/18 07:45:12;;;;;;;17.67;10.43;;;;;;;;;;5021546;28;20044;-80
2023/08/18 07:47:39;;;;;;;17.90;12.10;;;;;;;;;;5037942;28;20405;-79
2023/08/18 07:50:09;;;;;;;17.80;11.98;;;;;;;;;;5021080;28;20095;-80
2023/08/18 07:52:35;;;;;;;15.10;11.48;;;;;;;;;;5037489;28;20048;-79
2023/08/18 07:55:02;;;;;;;15.40;13.07;;;;;;;;;;5037348;28;20059;-80
2023/08/18 07:57:28;;;;;;;18.52;12.70;;;;;;;;;;5037674;28;20080;-80
2023/08/18 07:59:55;;;;;;;19.85;13.02;;;;;;;;;;5021254;28;20048;-80
2023/08/18 08:02:21;;;;;;;19.92;13.68;;;;;;;;;;5037153;28;20420;-79
2023/08/18 08:04:47;;;;;;;21.55;14.60;;;;;;;;;;5037082;28;20053;-80
2023/08/18 08:07:13;;;;;;;24.38;14.20;;;;;;;;;;5037275;28;20090;-80
2023/08/18 08:09:40;;;;;;;20.17;14.55;;;;;;;;;;5004727;28;20095;-80
2023/08/18 08:12:06;;;;;;;18.63;13.25;;;;;;;;;;5037450;28;20041;-79
2023/08/18 08:14:32;;;;;;;19.42;14.32;;;;;;;;;;5037312;28;20380;-79
2023/08/18 08:16:58;;;;;;;22.20;15.50;;;;;;;;;;5037309;28;20041;-79
2023/08/18 08:19:25;;;;;;;21.65;15.00;;;;;;;;;;5020728;28;20143;-80
2023/08/18 08:21:52;;;;;;;23.63;16.48;;;;;;;;;;5036888;28;20464;-79
2023/08/18 08:24:18;;;;;;;25.38;15.70;;;;;;;;;;5054499;28;20045;-80
2023/08/18 08:26:44;;;;;;;24.60;16.15;;;;;;;;;;5037137;28;20037;-80
2023/08/18 08:29:11;;;;;;;26.42;17.23;;;;;;;;;;5020282;28;20044;-79
2023/08/18 08:31:37;;;;;;;26.70;17.35;;;;;;;;;;5037010;28;20091;-79
2023/08/18 08:34:04;;;;;;;25.95;16.65;;;;;;;;;;5036546;28;20056;-80
2023/08/18 08:36:32;;;;;;;26.20;16.08;;;;;;;;;;5020118;28;20045;-80
2023/08/18 08:38:59;;;;;;;27.70;17.10;;;;;;;;;;5036594;28;20048;-80
2023/08/18 08:41:27;;;;;;;24.73;16.08;;;;;;;;;;5037098;28;20099;-80
2023/08/18 08:43:54;;;;;;;23.15;15.13;;;;;;;;;;5036510;28;20041;-80
2023/08/18 08:46:21;;;;;;;22.30;15.32;;;;;;;;;;5020232;28;20057;-80
2023/08/18 08:48:47;;;;;;;23.05;16.27;;;;;;;;;;5020250;28;20042;-80
2023/08/18 08:51:15;;;;;;;24.88;16.33;;;;;;;;;;5036719;28;20380;-80
2023/08/18 08:53:50;;;;;;;21.98;15.95;;;;;;;;;;5036154;28;20147;-80
2023/08/18 08:56:18;;;;;;;25.15;14.88;;;;;;;;;;5036748;28;20056;-80
2023/08/18 08:58:44;;;;;;;23.33;15.30;;;;;;;;;;5035740;28;20451;-80
2023/08/18 09:01:10;;;;;;;23.63;14.02;;;;;;;;;;5036315;28;20495;-80
2023/08/18 09:03:37;;;;;;;23.65;14.25;;;;;;;;;;5035986;28;20431;-80
2023/08/18 09:06:03;;;;;;;19.20;14.77;;;;;;;;;;5035707;28;20044;-80
2023/08/18 09:08:29;;;;;;;18.38;13.32;;;;;;;;;;5036863;28;20178;-81
2023/08/18 09:10:55;;;;;;;16.23;12.30;;;;;;;;;;5036309;28;20041;-80
2023/08/18 09:13:21;;;;;;;16.15;12.10;;;;;;;;;;5036361;28;20037;-80
2023/08/18 09:15:47;;;;;;;17.17;11.68;;;;;;;;;;5035922;28;20045;-80
2023/08/18 09:18:17;;;;;;;15.57;11.75;;;;;;;;;;5036073;28;20468;-80
2023/08/18 09:20:43;;;;;;;13.68;11.10;;;;;;;;;;5036041;28;20045;-80
2023/08/18 09:23:09;;;;;;;15.45;11.20;;;;;;;;;;5019730;28;20041;-80
2023/08/18 09:25:35;;;;;;;13.43;10.38;;;;;;;;;;5019795;28;20051;-80
2023/08/18 09:28:03;;;;;;;13.80;11.32;;;;;;;;;;5036294;28;20094;-80
2023/08/18 09:30:30;;;;;;;16.10;11.98;;;;;;;;;;5035563;28;20500;-80
2023/08/18 09:32:57;;;;;;;14.27;11.02;;;;;;;;;;5019534;28;20052;-80
2023/08/18 09:35:24;;;;;;;13.75;11.60;;;;;;;;;;5035407;28;20049;-80
2023/08/18 09:37:59;;;;;;;18.40;12.60;;;;;;;;;;5019681;28;20059;-80
2023/08/18 09:40:26;;;;;;;11.93;10.40;;;;;;;;;;5036047;28;20127;-80
2023/08/18 09:42:52;;;;;;;19.20;12.63;;;;;;;;;;5019328;28;20102;-79
2023/08/18 09:45:26;;;;;;;14.60;11.02;;;;;;;;;;5035831;28;20124;-80
2023/08/18 09:47:56;;;;;;;15.20;11.15;;;;;;;;;;5036192;28;20049;-80
2023/08/18 09:50:25;;;;;;;11.82;10.50;;;;;;;;;;5019817;28;20118;-80
2023/08/18 09:52:55;;;;;;;11.05;9.50;;;;;;;;;;5035372;28;20480;-79
2023/08/18 09:55:34;;;;;;;12.13;10.35;;;;;;;;;;5036019;28;20045;-80
2023/08/18 09:58:03;;;;;;;12.52;10.27;;;;;;;;;;5019365;28;20044;-81
2023/08/18 10:00:31;;;;;;;12.23;10.55;;;;;;;;;;5035837;28;20132;-80
2023/08/18 10:03:00;;;;;;;11.88;10.13;;;;;;;;;;5035689;28;20040;-80
2023/08/18 10:05:27;;;;;;;10.25;9.23;;;;;;;;;;5035233;28;20126;-80
2023/08/18 10:07:53;;;;;;;12.07;10.60;;;;;;;;;;5053467;28;20175;-80
2023/08/18 10:10:20;;;;;;;13.20;10.02;;;;;;;;;;5036365;28;20036;-80
2023/08/18 10:12:46;;;;;;;12.52;11.18;;;;;;;;;;5039521;28;20056;-80
2023/08/18 10:15:13;;;;;;;11.63;10.45;;;;;;;;;;5039611;28;20044;-80
2023/08/18 10:17:39;;;;;;;12.18;10.90;;;;;;;;;;5040066;28;20428;-80
2023/08/18 10:20:10;;;;;;;13.35;11.88;;;;;;;;;;5039373;28;20124;-80
2023/08/18 10:22:37;;;;;;;12.30;11.05;;;;;;;;;;5039142;28;20048;-80
2023/08/18 10:25:05;;;;;;;13.50;12.18;;;;;;;;;;5039181;28;20040;-80
2023/08/18 10:27:31;;;;;;;14.68;13.25;;;;;;;;;;5056688;28;20088;-80
2023/08/18 10:30:02;;;;;;;13.05;11.82;;;;;;;;;;5039238;28;20041;-80
2023/08/18 10:32:31;;;;;;;14.35;12.95;;;;;;;;;;5039560;28;20091;-80
2023/08/18 10:35:16;;;;;;;14.85;13.35;;;;;;;;;;5038703;28;20388;-80
2023/08/18 10:37:43;;;;;;;15.68;14.25;;;;;;;;;;5039067;28;20053;-80
2023/08/18 10:40:09;;;;;;;18.77;15.07;;;;;;;;;;5039050;28;20148;-80
2023/08/18 10:42:36;;;;;;;16.35;14.68;;;;;;;;;;5022396;28;20076;-80
2023/08/18 10:45:05;;;;;;;18.42;16.48;;;;;;;;;;5039121;28;20076;-80
2023/08/18 10:47:32;;;;;;;17.33;15.55;;;;;;;;;;5039149;28;20037;-80
2023/08/18 10:49:59;;;;;;;17.15;15.50;;;;;;;;;;5038892;28;20044;-80
2023/08/18 10:52:28;;;;;;;18.58;16.35;;;;;;;;;;5038674;28;20110;-80
2023/08/18 10:54:54;;;;;;;16.52;14.75;;;;;;;;;;5034884;28;20045;-80
2023/08/18 10:57:20;;;;;;;14.82;13.38;;;;;;;;;;5035985;28;20045;-80
2023/08/18 10:59:46;;;;;;;16.38;14.77;;;;;;;;;;5035433;28;20052;-80
2023/08/18 11:02:13;;;;;;;16.48;14.88;;;;;;;;;;5019040;28;20044;-80
2023/08/18 11:04:39;;;;;;;18.05;16.35;;;;;;;;;;5034866;28;20071;-80
2023/08/18 11:07:05;;;;;;;17.65;16.00;;;;;;;;;;5035393;28;20049;-80
2023/08/18 11:09:32;;;;;;;17.73;16.08;;;;;;;;;;5035358;28;20448;-80
2023/08/18 11:11:58;;;;;;;19.02;17.23;;;;;;;;;;5035671;28;20048;-80
2023/08/18 11:14:24;;;;;;;18.70;16.90;;;;;;;;;;5035042;28;20049;-80
2023/08/18 11:16:50;;;;;;;19.33;17.45;;;;;;;;;;5035046;28;20050;-80
2023/08/18 11:19:16;;;;;;;18.20;16.30;;;;;;;;;;5034981;28;20224;-80
2023/08/18 11:21:42;;;;;;;18.20;16.50;;;;;;;;;;5017961;28;20068;-80
2023/08/18 11:24:09;;;;;;;19.05;17.15;;;;;;;;;;5035184;28;20050;-80
2023/08/18 11:26:36;;;;;;;18.33;16.63;;;;;;;;;;5034934;28;20521;-79
2023/08/18 11:29:04;;;;;;;18.83;16.95;;;;;;;;;;5034981;28;20080;-80
2023/08/18 11:31:30;;;;;;;19.13;17.35;;;;;;;;;;5034802;28;20037;-79
2023/08/18 11:33:56;;;;;;;16.88;15.18;;;;;;;;;;5034658;28;20412;-80
2023/08/18 11:36:27;;;;;;;17.08;15.48;;;;;;;;;;5034232;28;20533;-80
2023/08/18 11:38:56;;;;;;;16.15;14.50;;;;;;;;;;5034911;28;20138;-80
2023/08/18 11:41:22;;;;;;;18.63;16.92;;;;;;;;;;5034723;28;20041;-79
2023/08/18 11:43:48;;;;;;;17.00;15.38;;;;;;;;;;5034429;28;20434;-79
2023/08/18 11:46:14;;;;;;;15.93;14.43;;;;;;;;;;5034538;28;20056;-79
2023/08/18 11:48:40;;;;;;;18.67;16.85;;;;;;;;;;5034359;28;20492;-80
2023/08/18 11:51:13;;;;;;;20.92;18.98;;;;;;;;;;5034883;28;20146;-79
2023/08/18 11:53:39;;;;;;;18.23;16.67;;;;;;;;;;5036488;28;20132;-80
2023/08/18 11:56:05;;;;;;;18.10;16.60;;;;;;;;;;5037498;28;20103;-79
2023/08/18 11:58:33;;;;;;;17.52;15.98;;;;;;;;;;5037494;28;20124;-80
2023/08/18 12:01:04;;;;;;;17.20;15.70;;;;;;;;;;5037404;28;20048;-80
2023/08/18 12:03:31;;;;;;;19.40;17.75;;;;;;;;;;5037515;28;20045;-79
2023/08/18 12:05:58;;;;;;;19.65;18.05;;;;;;;;;;5004481;28;20052;-79
2023/08/18 12:08:24;;;;;;;21.67;19.52;;;;;;;;;;5020948;28;20127;-79
2023/08/18 12:10:53;;;;;;;22.73;20.75;;;;;;;;;;5037154;28;20476;-80
2023/08/18 12:13:19;;;;;;;20.98;19.17;;;;;;;;;;5020954;28;20041;-80
2023/08/18 12:15:45;;;;;;;21.80;19.98;;;;;;;;;;5037127;28;20041;-80
2023/08/18 12:18:12;;;;;;;24.08;22.10;;;;;;;;;;5020836;28;20045;-80
2023/08/18 12:20:38;;;;;;;22.10;20.17;;;;;;;;;;5054877;28;20041;-80
2023/08/18 12:23:04;;;;;;;21.00;19.30;;;;;;;;;;5037057;28;20037;-79
2023/08/18 12:25:30;;;;;;;20.58;18.85;;;;;;;;;;5037192;28;20037;-80
2023/08/18 12:27:57;;;;;;;19.25;17.55;;;;;;;;;;5037018;28;20067;-80
2023/08/18 12:30:25;;;;;;;18.55;17.05;;;;;;;;;;5036910;28;20377;-80
2023/08/18 12:32:51;;;;;;;18.23;16.83;;;;;;;;;;5054265;28;20047;-79
2023/08/18 12:35:18;;;;;;;20.05;18.55;;;;;;;;;;5036326;28;20045;-79
2023/08/18 12:37:44;;;;;;;22.52;20.73;;;;;;;;;;5036830;28;20388;-80
2023/08/18 12:40:10;;;;;;;21.60;19.75;;;;;;;;;;5036727;28;20544;-80
2023/08/18 12:42:40;;;;;;;19.90;18.40;;;;;;;;;;5020117;28;20044;-80
2023/08/18 12:45:07;;;;;;;20.52;18.90;;;;;;;;;;5020066;28;20091;-80
2023/08/18 12:47:33;;;;;;;18.45;16.92;;;;;;;;;;5054326;28;20045;-80
2023/08/18 12:50:00;;;;;;;18.55;16.85;;;;;;;;;;5020391;28;20044;-80
2023/08/18 12:52:26;;;;;;;17.20;15.90;;;;;;;;;;5036675;28;20103;-79
2023/08/18 12:54:52;;;;;;;15.75;14.57;;;;;;;;;;5036360;28;20048;-79
2023/08/18 12:57:18;;;;;;;15.20;13.90;;;;;;;;;;5036305;28;20049;-80
2023/08/18 12:59:44;;;;;;;14.00;12.90;;;;;;;;;;5020335;28;20037;-80
2023/08/18 13:02:10;;;;;;;12.95;11.95;;;;;;;;;;5036376;28;20076;-80
2023/08/18 13:04:36;;;;;;;11.55;10.55;;;;;;;;;;5036125;28;20052;-80
2023/08/18 13:07:02;;;;;;;12.95;11.95;;;;;;;;;;5054048;28;20091;-80
2023/08/18 13:09:29;;;;;;;12.98;11.85;;;;;;;;;;5054112;28;20094;-80
2023/08/18 13:11:55;;;;;;;11.65;10.52;;;;;;;;;;5053836;28;20124;-81
2023/08/18 13:14:21;;;;;;;14.40;13.15;;;;;;;;;;5036087;28;20040;-80
2023/08/18 13:16:49;;;;;;;13.68;12.40;;;;;;;;;;5036262;28;20049;-80
2023/08/18 13:19:15;;;;;;;12.90;11.90;;;;;;;;;;5036168;28;20036;-80
2023/08/18 13:21:41;;;;;;;12.57;11.63;;;;;;;;;;5019842;28;20085;-80
2023/08/18 13:24:07;;;;;;;11.88;11.00;;;;;;;;;;5053688;28;20041;-80
2023/08/18 13:26:34;;;;;;;11.75;10.85;;;;;;;;;;5036105;28;20056;-81
2023/08/18 13:29:01;;;;;;;12.38;11.48;;;;;;;;;;5019683;28;20049;-80
2023/08/18 13:31:27;;;;;;;10.85;10.02;;;;;;;;;;5053642;28;20114;-80
2023/08/18 13:33:53;;;;;;;12.02;11.13;;;;;;;;;;5036031;28;20052;-80
2023/08/18 13:36:19;;;;;;;10.40;9.50;;;;;;;;;;5035514;28;20033;-80
2023/08/18 13:38:45;;;;;;;11.63;10.60;;;;;;;;;;5035969;28;20094;-80
2023/08/18 13:41:11;;;;;;;11.25;10.50;;;;;;;;;;5019488;28;20087;-80
2023/08/18 13:43:37;;;;;;;10.80;9.90;;;;;;;;;;5019105;28;20147;-80
2023/08/18 13:46:03;;;;;;;13.18;12.05;;;;;;;;;;5042329;28;20377;-80
2023/08/18 13:48:29;;;;;;;10.88;9.98;;;;;;;;;;5042566;28;20101;-80
2023/08/18 13:50:55;;;;;;;10.25;9.43;;;;;;;;;;5042785;28;20056;-80
2023/08/18 13:53:22;;;;;;;10.48;9.68;;;;;;;;;;5042654;28;20481;-80
2023/08/18 13:55:48;;;;;;;10.30;9.43;;;;;;;;;;5042215;28;20107;-80
2023/08/18 13:58:14;;;;;;;8.85;8.05;;;;;;;;;;5043121;28;20048;-80
2023/08/18 14:00:40;;;;;;;9.13;8.23;;;;;;;;;;5042303;28;20056;-80
2023/08/18 14:03:06;;;;;;;8.43;7.82;;;;;;;;;;5041938;28;20045;-80
2023/08/18 14:05:32;;;;;;;8.38;7.80;;;;;;;;;;5041827;28;20088;-80
2023/08/18 14:07:59;;;;;;;10.07;9.27;;;;;;;;;;5042375;28;20131;-80
2023/08/18 14:10:25;;;;;;;10.27;9.27;;;;;;;;;;5025630;28;20037;-80
2023/08/18 14:12:51;;;;;;;9.98;9.05;;;;;;;;;;5042982;28;20365;-80
2023/08/18 14:15:18;;;;;;;10.98;10.10;;;;;;;;;;5042277;28;20048;-80
2023/08/18 14:17:44;;;;;;;8.20;7.53;;;;;;;;;;5042507;28;20040;-80
2023/08/18 14:20:20;;;;;;;8.38;7.68;;;;;;;;;;5042242;28;20072;-80
2023/08/18 14:22:47;;;;;;;7.72;7.22;;;;;;;;;;5041976;28;20044;-80
2023/08/18 14:25:13;;;;;;;9.95;9.23;;;;;;;;;;5042201;28;20037;-80